createdAt,value
2019-05-23T00:00:19.713Z,4.80
2019-05-23T00:02:49.336Z,4.63
2019-05-23T00:05:23.120Z,3.80
2019-05-23T00:07:50.893Z,4.10
2019-05-23T00:10:21.923Z,3.97
2019-05-23T00:12:54.665Z,3.80
2019-05-23T00:15:25.223Z,3.43
2019-05-23T00:17:52.888Z,4.53
2019-05-23T00:20:21.265Z,4.80
2019-05-23T00:22:47.656Z,4.00
2019-05-23T00:25:17.404Z,3.77
2019-05-23T00:27:44.970Z,4.10
2019-05-23T00:30:15.116Z,4.40
2019-05-23T00:32:46.960Z,4.03
2019-05-23T00:35:15.439Z,4.20
2019-05-23T00:37:42.607Z,4.10
2019-05-23T00:40:12.435Z,4.10
2019-05-23T00:42:40.865Z,4.00
2019-05-23T00:45:07.119Z,4.10
2019-05-23T00:47:33.400Z,3.57
2019-05-23T00:50:01.496Z,3.40
2019-05-23T00:52:28.644Z,3.77
2019-05-23T00:54:56.064Z,4.20
2019-05-23T00:57:22.153Z,4.50
2019-05-23T00:59:50.296Z,3.93
2019-05-23T01:02:17.757Z,3.87
2019-05-23T01:04:44.971Z,3.47
2019-05-23T01:07:14.608Z,3.93
2019-05-23T01:09:42.212Z,3.93
2019-05-23T01:12:09.556Z,4.10
2019-05-23T01:14:38.006Z,4.07
2019-05-23T01:17:05.992Z,3.57
2019-05-23T01:19:34.259Z,3.67
2019-05-23T01:22:03.464Z,3.87
2019-05-23T01:24:42.488Z,4.13
2019-05-23T01:27:10.044Z,4.57
2019-05-23T01:29:39.248Z,4.13
2019-05-23T01:32:13.968Z,3.80
2019-05-23T01:34:43.404Z,3.80
2019-05-23T01:37:10.775Z,3.67
2019-05-23T01:39:37.541Z,3.77
2019-05-23T01:42:04.940Z,4.13
2019-05-23T01:44:33.052Z,4.00
2019-05-23T01:47:00.188Z,4.00
2019-05-23T01:49:27.360Z,4.20
2019-05-23T01:51:56.065Z,3.87
2019-05-23T01:54:23.353Z,3.67
2019-05-23T01:56:50.026Z,3.40
2019-05-23T01:59:18.432Z,3.00
2019-05-23T02:01:46.816Z,4.30
2019-05-23T02:04:15.304Z,3.40
2019-05-23T02:06:41.756Z,3.57
2019-05-23T02:09:09.202Z,3.53
2019-05-23T02:11:36.700Z,3.60
2019-05-23T02:14:06.545Z,3.70
2019-05-23T02:16:33.182Z,4.80
2019-05-23T02:19:00.332Z,4.07
2019-05-23T02:21:28.912Z,4.10
2019-05-23T02:23:57.068Z,3.70
2019-05-23T02:26:23.660Z,3.80
2019-05-23T02:28:50.376Z,3.93
2019-05-23T02:31:18.848Z,3.33
2019-05-23T02:33:46.052Z,4.40
2019-05-23T02:36:13.759Z,3.50
2019-05-23T02:38:48.889Z,3.23
2019-05-23T02:41:20.441Z,3.27
2019-05-23T02:43:50.093Z,3.50
2019-05-23T02:46:18.139Z,3.60
2019-05-23T02:48:46.315Z,3.20
2019-05-23T02:51:16.631Z,3.23
2019-05-23T02:53:45.082Z,3.17
2019-05-23T02:56:16.641Z,3.73
2019-05-23T02:58:47.181Z,3.40
2019-05-23T03:01:17.427Z,3.50
2019-05-23T03:03:46.179Z,3.60
2019-05-23T03:06:14.161Z,3.50
2019-05-23T03:08:42.141Z,3.77
2019-05-23T03:11:12.769Z,3.60
2019-05-23T03:13:41.093Z,3.13
2019-05-23T03:16:11.705Z,2.83
2019-05-23T03:18:41.151Z,2.60
2019-05-23T03:21:08.964Z,2.90
2019-05-23T03:23:35.576Z,3.20
2019-05-23T03:26:23.765Z,3.17
2019-05-23T03:28:52.618Z,3.27
2019-05-23T03:31:29.427Z,3.07
2019-05-23T03:33:52.933Z,3.30
2019-05-23T03:36:20.087Z,2.93
2019-05-23T03:38:47.569Z,2.57
2019-05-23T03:41:14.044Z,3.10
2019-05-23T03:43:41.517Z,2.77
2019-05-23T03:46:12.576Z,2.80
2019-05-23T03:48:40.583Z,2.90
2019-05-23T03:51:09.337Z,2.70
2019-05-23T03:53:36.885Z,2.67
2019-05-23T03:56:03.535Z,3.30
2019-05-23T03:58:31.383Z,2.90
2019-05-23T04:00:59.386Z,3.00
2019-05-23T04:03:27.632Z,3.37
2019-05-23T04:05:55.761Z,3.03
2019-05-23T04:08:23.586Z,3.20
2019-05-23T04:10:51.787Z,2.47
2019-05-23T04:13:20.241Z,2.90
2019-05-23T04:15:49.112Z,3.10
2019-05-23T04:18:15.577Z,3.00
2019-05-23T04:20:43.755Z,3.23
2019-05-23T04:23:11.601Z,2.67
2019-05-23T04:25:38.951Z,2.50
2019-05-23T04:28:06.528Z,2.67
2019-05-23T04:30:32.923Z,3.40
2019-05-23T04:32:59.996Z,3.67
2019-05-23T04:35:26.814Z,3.20
2019-05-23T04:37:53.864Z,2.90
2019-05-23T04:40:21.641Z,3.03
2019-05-23T04:42:47.919Z,2.90
2019-05-23T04:45:16.253Z,2.60
2019-05-23T04:47:43.701Z,3.80
2019-05-23T04:50:13.162Z,2.30
2019-05-23T04:52:40.646Z,3.13
2019-05-23T04:55:08.112Z,2.57
2019-05-23T04:57:36.592Z,2.73
2019-05-23T05:00:09.124Z,2.83
2019-05-23T05:02:36.033Z,2.30
2019-05-23T05:05:05.110Z,2.97
2019-05-23T05:07:31.843Z,2.50
2019-05-23T05:09:59.028Z,2.40
2019-05-23T05:12:26.464Z,2.60
2019-05-23T05:14:53.952Z,2.70
2019-05-23T05:17:22.367Z,2.70
2019-05-23T05:19:50.286Z,2.40
2019-05-23T05:22:17.347Z,2.53
2019-05-23T05:24:44.253Z,2.97
2019-05-23T05:27:12.528Z,2.70
2019-05-23T05:29:38.595Z,2.57
2019-05-23T05:32:06.300Z,2.33
2019-05-23T05:34:33.666Z,2.17
2019-05-23T05:37:01.372Z,2.20
2019-05-23T05:39:29.545Z,2.40
2019-05-23T05:41:55.602Z,2.77
2019-05-23T05:44:21.935Z,2.53
2019-05-23T05:46:48.220Z,2.30
2019-05-23T05:49:15.848Z,2.27
2019-05-23T05:51:42.860Z,2.13
2019-05-23T05:54:10.332Z,2.13
2019-05-23T05:56:36.466Z,2.30
2019-05-23T05:59:03.185Z,2.50
2019-05-23T06:01:34.295Z,2.37
2019-05-23T06:03:59.964Z,2.30
2019-05-23T06:06:28.256Z,2.23
2019-05-23T06:08:56.239Z,2.47
2019-05-23T06:11:22.801Z,2.50
2019-05-23T06:13:49.216Z,2.27
2019-05-23T06:16:15.301Z,2.90
2019-05-23T06:18:42.748Z,2.23
2019-05-23T06:21:11.566Z,2.50
2019-05-23T06:23:38.791Z,2.37
2019-05-23T06:26:05.400Z,2.80
2019-05-23T06:28:33.449Z,2.70
2019-05-23T06:31:02.687Z,2.90
2019-05-23T06:33:31.881Z,2.53
2019-05-23T06:36:00.680Z,2.80
2019-05-23T06:38:29.828Z,2.50
2019-05-23T06:40:58.756Z,3.00
2019-05-23T06:43:24.913Z,2.40
2019-05-23T06:45:51.931Z,2.90
2019-05-23T06:48:19.774Z,2.70
2019-05-23T06:50:46.333Z,2.53
2019-05-23T06:53:12.813Z,2.40
2019-05-23T06:55:39.051Z,2.80
2019-05-23T06:58:06.241Z,2.63
2019-05-23T07:00:35.061Z,3.47
2019-05-23T07:03:01.225Z,3.30
2019-05-23T07:05:32.027Z,2.80
2019-05-23T07:07:58.072Z,3.30
2019-05-23T07:10:24.844Z,2.80
2019-05-23T07:12:51.296Z,2.73
2019-05-23T07:15:18.881Z,3.13
2019-05-23T07:17:45.576Z,3.10
2019-05-23T07:20:12.641Z,2.80
2019-05-23T07:22:39.587Z,2.30
2019-05-23T07:25:08.577Z,2.73
2019-05-23T07:27:36.130Z,2.80
2019-05-23T07:30:11.881Z,2.77
2019-05-23T07:32:38.046Z,2.37
2019-05-23T07:35:04.759Z,2.90
2019-05-23T07:37:31.707Z,2.90
2019-05-23T07:39:58.116Z,3.40
2019-05-23T07:42:24.448Z,2.87
2019-05-23T07:44:53.847Z,2.57
2019-05-23T07:47:20.271Z,2.70
2019-05-23T07:49:47.447Z,2.57
2019-05-23T07:52:14.104Z,2.57
2019-05-23T07:54:45.345Z,2.60
2019-05-23T07:57:14.214Z,3.00
2019-05-23T07:59:42.596Z,2.33
2019-05-23T08:02:14.384Z,3.00
2019-05-23T08:04:40.773Z,3.00
2019-05-23T08:07:08.828Z,2.63
2019-05-23T08:09:36.284Z,3.13
2019-05-23T08:12:03.848Z,2.93
2019-05-23T08:14:31.198Z,2.30
2019-05-23T08:16:57.640Z,2.80
2019-05-23T08:19:23.976Z,2.60
2019-05-23T08:21:50.072Z,2.50
2019-05-23T08:24:18.167Z,2.60
2019-05-23T08:26:45.724Z,2.63
2019-05-23T08:29:25.573Z,2.83
2019-05-23T08:31:40.165Z,3.20
2019-05-23T08:34:08.821Z,2.60
2019-05-23T08:36:35.257Z,2.63
2019-05-23T08:39:07.408Z,2.90
2019-05-23T08:41:34.661Z,2.80
2019-05-23T08:44:01.095Z,2.90
2019-05-23T08:46:28.285Z,3.10
2019-05-23T08:48:55.741Z,2.50
2019-05-23T08:51:22.440Z,2.97
2019-05-23T08:53:49.726Z,2.73
2019-05-23T08:56:19.487Z,2.47
2019-05-23T08:58:46.617Z,2.47
2019-05-23T09:01:12.746Z,2.60
2019-05-23T09:03:39.842Z,2.70
2019-05-23T09:06:07.006Z,2.40
2019-05-23T09:08:36.722Z,2.57
2019-05-23T09:11:02.900Z,3.13
2019-05-23T09:13:31.429Z,2.77
2019-05-23T09:15:58.473Z,2.70
2019-05-23T09:18:25.593Z,2.27
2019-05-23T09:20:52.064Z,2.27
2019-05-23T09:23:19.204Z,2.37
2019-05-23T09:25:45.692Z,2.63
2019-05-23T09:28:14.076Z,3.17
2019-05-23T09:30:40.815Z,2.93
2019-05-23T09:33:08.009Z,2.13
2019-05-23T09:35:35.448Z,2.43
2019-05-23T09:38:02.991Z,2.67
2019-05-23T09:40:29.769Z,2.47
2019-05-23T09:42:55.928Z,2.30
2019-05-23T09:45:23.504Z,2.77
2019-05-23T09:47:51.188Z,3.00
2019-05-23T09:50:20.148Z,2.63
2019-05-23T09:52:47.205Z,2.70
2019-05-23T09:55:14.089Z,2.97
2019-05-23T09:57:40.480Z,2.40
2019-05-23T10:00:09.937Z,2.60
2019-05-23T10:02:37.616Z,2.50
2019-05-23T10:05:07.491Z,2.40
2019-05-23T10:07:34.464Z,2.53
2019-05-23T10:10:00.515Z,2.40
2019-05-23T10:12:26.864Z,2.50
2019-05-23T10:14:53.112Z,2.20
2019-05-23T10:17:20.436Z,2.20
2019-05-23T10:19:46.896Z,2.90
2019-05-23T10:22:13.988Z,2.33
2019-05-23T10:24:40.758Z,2.73
2019-05-23T10:27:08.821Z,2.37
2019-05-23T10:29:35.589Z,2.90
2019-05-23T10:32:02.310Z,2.13
2019-05-23T10:34:28.396Z,2.17
2019-05-23T10:36:54.444Z,2.50
2019-05-23T10:39:22.294Z,2.20
2019-05-23T10:41:48.741Z,2.50
2019-05-23T10:44:16.992Z,2.10
2019-05-23T10:46:43.490Z,2.10
2019-05-23T10:49:11.004Z,2.53
2019-05-23T10:51:37.420Z,2.30
2019-05-23T10:54:03.989Z,2.40
2019-05-23T10:56:30.829Z,2.17
2019-05-23T10:58:57.784Z,2.50
2019-05-23T11:01:25.160Z,2.37
2019-05-23T11:03:52.617Z,2.60
2019-05-23T11:06:18.806Z,2.40
2019-05-23T11:08:45.663Z,3.10
2019-05-23T11:11:15.001Z,1.93
2019-05-23T11:13:43.489Z,2.80
2019-05-23T11:16:11.009Z,2.20
2019-05-23T11:18:38.544Z,2.60
2019-05-23T11:21:06.316Z,2.47
2019-05-23T11:23:34.684Z,2.73
2019-05-23T11:26:02.714Z,2.70
2019-05-23T11:28:33.600Z,2.50
2019-05-23T11:31:00.888Z,3.30
2019-05-23T11:33:28.446Z,2.57
2019-05-23T11:35:56.170Z,2.83
2019-05-23T11:38:23.292Z,2.10
2019-05-23T11:40:50.262Z,2.87
2019-05-23T11:43:16.592Z,2.47
2019-05-23T11:45:46.801Z,2.67
2019-05-23T11:48:16.267Z,2.30
2019-05-23T11:50:44.257Z,2.30
2019-05-23T11:53:10.708Z,1.90
2019-05-23T11:55:36.768Z,2.60
2019-05-23T11:58:04.321Z,2.00
2019-05-23T12:00:52.317Z,2.50
2019-05-23T12:03:19.876Z,2.60
2019-05-23T12:05:45.957Z,2.13
2019-05-23T12:08:12.042Z,2.13
2019-05-23T12:10:38.477Z,2.30
2019-05-23T12:13:06.473Z,2.10
2019-05-23T12:15:35.029Z,2.07
2019-05-23T12:18:02.470Z,2.17
2019-05-23T12:20:28.645Z,2.33
2019-05-23T12:22:56.428Z,2.43
2019-05-23T12:25:23.911Z,2.33
2019-05-23T12:27:50.395Z,2.90
2019-05-23T12:30:18.824Z,2.10
2019-05-23T12:32:45.288Z,2.07
2019-05-23T12:35:12.813Z,2.47
2019-05-23T12:37:40.332Z,2.13
2019-05-23T12:40:09.726Z,2.70
2019-05-23T12:42:36.248Z,2.20
2019-05-23T12:45:06.730Z,2.40
2019-05-23T12:47:40.861Z,1.87
2019-05-23T12:50:10.876Z,2.07
2019-05-23T12:52:37.297Z,2.20
2019-05-23T12:55:04.906Z,2.13
2019-05-23T12:57:32.433Z,2.00
2019-05-23T13:00:00.593Z,2.30
2019-05-23T13:02:28.082Z,2.47
2019-05-23T13:04:55.526Z,1.90
2019-05-23T13:07:35.651Z,2.27
2019-05-23T13:09:51.303Z,1.67
2019-05-23T13:12:17.988Z,2.00
2019-05-23T13:14:44.082Z,2.10
2019-05-23T13:17:11.176Z,2.90
2019-05-23T13:19:37.262Z,2.30
2019-05-23T13:22:04.620Z,2.27
2019-05-23T13:24:50.700Z,2.27
2019-05-23T13:27:00.393Z,2.37
2019-05-23T13:29:27.112Z,2.47
2019-05-23T13:31:54.788Z,2.20
2019-05-23T13:34:20.976Z,2.37
2019-05-23T13:36:47.071Z,2.10
2019-05-23T13:39:16.121Z,2.20
2019-05-23T13:41:42.452Z,2.53
2019-05-23T13:44:10.217Z,2.10
2019-05-23T13:46:38.164Z,2.03
2019-05-23T13:49:05.716Z,2.70
2019-05-23T13:51:31.839Z,1.97
2019-05-23T13:53:58.917Z,2.40
2019-05-23T13:56:25.566Z,2.53
2019-05-23T13:58:52.408Z,2.40
2019-05-23T14:01:19.157Z,2.40
2019-05-23T14:03:46.322Z,1.90
2019-05-23T14:06:14.041Z,1.90
2019-05-23T14:08:40.472Z,1.87
2019-05-23T14:11:08.053Z,2.30
2019-05-23T14:13:34.627Z,1.80
2019-05-23T14:16:02.771Z,2.00
2019-05-23T14:18:31.140Z,2.20
2019-05-23T14:20:57.962Z,2.00
2019-05-23T14:23:28.772Z,1.77
2019-05-23T14:25:56.703Z,1.90
2019-05-23T14:28:24.171Z,2.10
2019-05-23T14:30:53.661Z,1.90
2019-05-23T14:33:26.202Z,2.33
2019-05-23T14:35:56.026Z,1.70
2019-05-23T14:38:30.931Z,2.10
2019-05-23T14:40:51.607Z,1.90
2019-05-23T14:43:23.513Z,2.07
2019-05-23T14:45:57.524Z,1.67
2019-05-23T14:48:45.452Z,1.90
2019-05-23T14:51:30.225Z,2.17
2019-05-23T14:54:07.244Z,1.83
2019-05-23T14:56:35.808Z,1.80
2019-05-23T14:59:03.501Z,1.97
2019-05-23T15:01:31.821Z,2.00
2019-05-23T15:03:59.262Z,1.80
2019-05-23T15:06:25.856Z,1.63
2019-05-23T15:08:52.492Z,2.03
2019-05-23T15:11:18.924Z,2.43
2019-05-23T15:13:45.565Z,2.00
2019-05-23T15:16:12.547Z,1.93
2019-05-23T15:18:38.707Z,1.90
2019-05-23T15:21:05.947Z,2.03
2019-05-23T15:23:32.984Z,2.20
2019-05-23T15:25:59.092Z,2.47
2019-05-23T15:28:25.265Z,2.20
2019-05-23T15:30:51.587Z,2.33
2019-05-23T15:33:18.094Z,2.40
2019-05-23T15:35:45.246Z,2.60
2019-05-23T15:38:11.689Z,2.23
2019-05-23T15:40:38.232Z,2.00
2019-05-23T15:43:04.652Z,2.30
2019-05-23T15:45:31.804Z,2.27
2019-05-23T15:47:58.248Z,2.07
2019-05-23T15:50:26.204Z,1.73
2019-05-23T15:52:54.266Z,2.00
2019-05-23T15:55:35.629Z,2.30
2019-05-23T15:58:21.929Z,2.00
2019-05-23T16:00:54.340Z,2.03
2019-05-23T16:03:22.390Z,2.10
2019-05-23T16:05:48.479Z,2.17
2019-05-23T16:08:15.755Z,2.30
2019-05-23T16:10:42.088Z,1.80
2019-05-23T16:13:08.647Z,1.57
2019-05-23T16:15:36.390Z,1.80
2019-05-23T16:18:03.569Z,1.80
2019-05-23T16:20:30.276Z,1.77
2019-05-23T16:22:56.730Z,2.20
2019-05-23T16:25:23.183Z,2.00
2019-05-23T16:27:50.304Z,2.80
2019-05-23T16:30:17.932Z,2.17
2019-05-23T16:32:46.541Z,1.70
2019-05-23T16:35:12.736Z,1.83
2019-05-23T16:37:39.709Z,2.07
2019-05-23T16:40:08.900Z,2.10
2019-05-23T16:42:35.239Z,2.03
2019-05-23T16:45:01.633Z,1.67
2019-05-23T16:47:29.424Z,2.10
2019-05-23T16:49:55.504Z,1.70
2019-05-23T16:52:22.032Z,2.17
2019-05-23T16:54:50.380Z,1.97
2019-05-23T16:57:22.844Z,1.93
2019-05-23T17:00:07.904Z,2.53
2019-05-23T17:02:38.640Z,1.63
2019-05-23T17:05:24.689Z,1.70
2019-05-23T17:07:53.108Z,2.10
2019-05-23T17:10:24.250Z,2.17
2019-05-23T17:12:58.571Z,1.67
2019-05-23T17:15:44.545Z,1.50
2019-05-23T17:18:13.548Z,1.70
2019-05-23T17:20:44.741Z,1.87
2019-05-23T17:23:12.828Z,1.83
2019-05-23T17:25:40.886Z,1.50
2019-05-23T17:28:09.693Z,1.60
2019-05-23T17:30:44.467Z,1.70
2019-05-23T17:33:12.393Z,1.70
2019-05-23T17:35:38.460Z,1.77
2019-05-23T17:38:04.513Z,1.80
2019-05-23T17:40:31.663Z,1.77
2019-05-23T17:42:57.851Z,1.87
2019-05-23T17:45:25.468Z,1.97
2019-05-23T17:47:53.164Z,2.20
2019-05-23T17:50:19.596Z,1.83
2019-05-23T17:52:46.029Z,1.60
2019-05-23T17:55:12.380Z,1.57
2019-05-23T17:57:39.008Z,1.60
2019-05-23T18:00:09.265Z,1.87
2019-05-23T18:02:36.162Z,1.80
2019-05-23T18:05:06.253Z,1.90
2019-05-23T18:07:33.708Z,1.80
2019-05-23T18:10:00.071Z,1.53
2019-05-23T18:12:27.838Z,1.40
2019-05-23T18:14:54.156Z,1.80
2019-05-23T18:17:20.389Z,1.57
2019-05-23T18:19:47.229Z,1.80
2019-05-23T18:22:15.221Z,1.77
2019-05-23T18:24:43.061Z,1.70
2019-05-23T18:27:10.212Z,3.50
2019-05-23T18:29:36.900Z,2.00
2019-05-23T18:32:05.216Z,1.80
2019-05-23T18:34:32.599Z,1.77
2019-05-23T18:37:00.869Z,2.50
2019-05-23T18:39:27.504Z,1.80
2019-05-23T18:41:54.048Z,1.80
2019-05-23T18:44:21.689Z,2.33
2019-05-23T18:46:52.399Z,1.83
2019-05-23T18:49:20.446Z,1.93
2019-05-23T18:51:47.235Z,1.90
2019-05-23T18:54:14.584Z,1.87
2019-05-23T18:56:41.040Z,1.77
2019-05-23T18:59:08.476Z,1.63
2019-05-23T19:01:36.953Z,1.70
2019-05-23T19:04:04.221Z,2.10
2019-05-23T19:06:31.568Z,1.93
2019-05-23T19:08:59.052Z,1.80
2019-05-23T19:11:25.406Z,2.00
2019-05-23T19:13:51.553Z,2.20
2019-05-23T19:16:18.615Z,2.27
2019-05-23T19:18:45.032Z,1.70
2019-05-23T19:21:13.332Z,1.90
2019-05-23T19:23:40.995Z,1.90
2019-05-23T19:26:09.172Z,1.70
2019-05-23T19:28:35.238Z,1.73
2019-05-23T19:31:03.391Z,1.70
2019-05-23T19:33:31.541Z,1.80
2019-05-23T19:35:57.593Z,1.70
2019-05-23T19:38:25.474Z,1.70
2019-05-23T19:40:52.896Z,2.03
2019-05-23T19:43:20.984Z,1.77
2019-05-23T19:45:47.993Z,1.67
2019-05-23T19:48:14.444Z,2.00
2019-05-23T19:50:40.592Z,2.17
2019-05-23T19:53:06.681Z,2.03
2019-05-23T19:55:33.732Z,1.90
2019-05-23T19:58:01.016Z,1.90
2019-05-23T20:00:28.470Z,1.97
2019-05-23T20:02:59.260Z,2.30
2019-05-23T20:05:37.879Z,1.97
2019-05-23T20:08:05.529Z,1.80
2019-05-23T20:10:33.944Z,2.10
2019-05-23T20:13:00.296Z,1.73
2019-05-23T20:15:27.602Z,2.07
2019-05-23T20:17:55.473Z,3.27
2019-05-23T20:20:22.353Z,1.73
2019-05-23T20:22:49.675Z,1.57
2019-05-23T20:25:17.844Z,2.10
2019-05-23T20:27:46.117Z,3.20
2019-05-23T20:30:17.888Z,2.20
2019-05-23T20:32:44.612Z,2.00
2019-05-23T20:35:10.841Z,2.07
2019-05-23T20:37:39.323Z,1.93
2019-05-23T20:40:06.522Z,1.67
2019-05-23T20:42:33.328Z,2.00
2019-05-23T20:44:59.661Z,2.13
2019-05-23T20:47:26.840Z,2.33
2019-05-23T20:49:53.555Z,1.70
2019-05-23T20:52:20.272Z,1.90
2019-05-23T20:54:46.356Z,1.80
2019-05-23T20:57:12.754Z,2.07
2019-05-23T20:59:39.769Z,2.07
2019-05-23T21:02:06.971Z,1.80
2019-05-23T21:04:33.664Z,2.00
2019-05-23T21:06:59.742Z,1.97
2019-05-23T21:09:26.170Z,1.80
2019-05-23T21:11:52.572Z,1.63
2019-05-23T21:14:18.982Z,1.70
2019-05-23T21:16:45.395Z,1.97
2019-05-23T21:19:11.967Z,1.90
2019-05-23T21:21:38.107Z,1.87
2019-05-23T21:24:05.083Z,1.80
2019-05-23T21:26:31.765Z,2.57
2019-05-23T21:28:57.964Z,2.20
2019-05-23T21:31:26.055Z,2.30
2019-05-23T21:33:52.279Z,1.83
2019-05-23T21:36:18.713Z,2.20
2019-05-23T21:38:47.056Z,1.87
2019-05-23T21:41:13.416Z,1.63
2019-05-23T21:43:41.573Z,1.90
2019-05-23T21:46:07.925Z,2.17
2019-05-23T21:48:34.677Z,2.00
2019-05-23T21:51:01.404Z,1.70
2019-05-23T21:53:27.736Z,1.53
2019-05-23T21:55:53.859Z,2.10
2019-05-23T21:58:19.996Z,1.80
2019-05-23T22:01:00.964Z,1.60
2019-05-23T22:03:27.057Z,1.77
2019-05-23T22:05:53.516Z,2.23
2019-05-23T22:08:21.809Z,1.90
2019-05-23T22:10:47.899Z,2.13
2019-05-23T22:13:14.263Z,2.03
2019-05-23T22:15:40.397Z,2.40
2019-05-23T22:18:07.218Z,2.73
2019-05-23T22:20:34.155Z,1.93
2019-05-23T22:23:00.235Z,2.00
2019-05-23T22:25:30.935Z,2.20
2019-05-23T22:27:57.901Z,2.80
2019-05-23T22:30:24.896Z,2.43
2019-05-23T22:32:52.361Z,2.67
2019-05-23T22:35:20.360Z,2.17
2019-05-23T22:37:46.569Z,2.13
2019-05-23T22:40:14.429Z,2.50
2019-05-23T22:42:41.884Z,2.40
2019-05-23T22:45:11.443Z,2.90
2019-05-23T22:47:37.556Z,2.70
2019-05-23T22:50:05.504Z,2.60
2019-05-23T22:52:31.588Z,2.50
2019-05-23T22:54:57.670Z,2.40
2019-05-23T22:57:23.712Z,2.47
2019-05-23T22:59:50.072Z,2.70
2019-05-23T23:02:17.752Z,2.83
2019-05-23T23:04:44.287Z,2.17
2019-05-23T23:17:31.529Z,1.87
2019-05-23T23:19:58.192Z,2.53
2019-05-23T23:22:24.672Z,3.27
2019-05-23T23:24:51.260Z,2.77
2019-05-23T23:27:17.422Z,2.47
2019-05-23T23:29:43.944Z,2.57
2019-05-23T23:32:11.256Z,3.23
2019-05-23T23:34:37.431Z,2.80
2019-05-23T23:37:03.832Z,3.00
2019-05-23T23:39:29.880Z,2.70
2019-05-23T23:41:55.937Z,2.53
2019-05-23T23:44:24.287Z,2.80
2019-05-23T23:47:09.017Z,2.80
2019-05-23T23:49:53.472Z,2.60
2019-05-23T23:52:38.441Z,3.23
2019-05-23T23:55:25.156Z,2.63
2019-05-23T23:58:00.093Z,3.83
